Bonnet Shores, Rhode Island
Current Conditions -  °F | °C
As of 9:53 AM on Wednesday 26 Nov 2014 (Local Time) from KUUU Reporting Station
Light Rain Light Rain  
Wind Chill: 36°   Ceiling: 7000
Heat Index: 42°   Visibility: 4mi
Dew Point: 35°   Wind: 10mph
Humidity: 76%   Direction: 60°ENE
Pressure: 30.11"   Gusts: NA
Location:  41.4075°N, 71.4775°W
Report Text: KUUU 261453Z AUTO 06009KT 4SM -RA OVC070 06/02 A3011 RMK AO2 SLP196 P0002 60004 T00560017 58012
Loading
Personal Weather Stations






























Interactive Weather Map New forecast layout! Learn more

10-Day Weather Forecast

Advertisements
Track Severe Weather on mobile